Time;durP1;ratioP1;P1;durP2;ratioP2;P2;SDS_P1;SDS_P2;PMS_P1;PMS_P2;Temp;Humidity;BMP_temperature;BMP_pressure;BME280_temperature;BME280_humidity;BME280_pressure;Samples;Min_cycle;Max_cycle;Signal;HPM_P1;HPM_P2
2023/04/13 00:00:53;;;;;;;0.52;0.40;;;5.20;99.90;;;;;;5089019;28;20087;-84
2023/04/13 00:06:27;;;;;;;2.45;0.50;;;3.80;99.90;;;;;;5084266;28;20142;-84
2023/04/13 00:08:53;;;;;;;2.25;0.50;;;2.90;99.90;;;;;;5091037;28;20044;-84
2023/04/13 00:11:19;;;;;;;2.33;1.08;;;4.70;99.90;;;;;;5089528;28;20048;-85
2023/04/13 00:13:46;;;;;;;0.50;0.40;;;4.40;99.90;;;;;;5080037;28;20051;-85
2023/04/13 00:16:14;;;;;;;0.40;0.40;;;5.60;99.90;;;;;;5075419;28;20095;-84
2023/04/13 00:18:41;;;;;;;0.68;0.60;;;5.80;99.90;;;;;;5089215;28;20438;-84
2023/04/13 00:21:07;;;;;;;2.92;0.50;;;4.30;99.90;;;;;;5090358;28;20047;-83
2023/04/13 00:23:36;;;;;;;1.70;0.60;;;5.80;99.90;;;;;;5079137;28;20052;-84
2023/04/13 00:26:01;;;;;;;1.42;0.90;;;4.30;99.90;;;;;;5079626;28;20040;-82
2023/04/13 00:28:28;;;;;;;0.98;0.60;;;4.30;99.90;;;;;;5089180;28;20050;-84
2023/04/13 00:30:55;;;;;;;1.92;0.80;;;4.40;99.90;;;;;;5088842;28;20476;-85
2023/04/13 00:33:20;;;;;;;1.40;0.70;;;4.70;99.90;;;;;;5089253;28;20052;-83
2023/04/13 00:35:48;;;;;;;2.35;0.73;;;4.50;99.90;;;;;;5094225;28;20038;-84
2023/04/13 00:38:14;;;;;;;1.13;0.70;;;4.50;99.90;;;;;;5085310;28;20119;-84
2023/04/13 00:40:41;;;;;;;2.85;0.70;;;5.00;99.90;;;;;;5087208;28;20116;-84
2023/04/13 00:43:06;;;;;;;2.30;0.80;;;4.70;99.90;;;;;;5083417;28;20063;-84
2023/04/13 00:45:37;;;;;;;1.58;0.82;;;5.40;99.90;;;;;;5092886;28;20052;-84
2023/04/13 00:48:06;;;;;;;1.63;1.00;;;4.90;99.90;;;;;;5083357;28;20078;-84
2023/04/13 00:50:33;;;;;;;3.17;1.00;;;5.00;99.90;;;;;;5088278;28;20067;-85
2023/04/13 00:53:00;;;;;;;2.58;0.80;;;5.00;99.90;;;;;;5091412;28;20044;-84
2023/04/13 00:55:26;;;;;;;1.85;1.00;;;4.90;99.90;;;;;;5091944;28;20043;-84
2023/04/13 00:57:52;;;;;;;1.55;0.90;;;5.10;99.90;;;;;;5086489;28;20036;-84
2023/04/13 01:00:18;;;;;;;2.90;1.10;;;5.90;99.90;;;;;;5081673;28;20036;-86
2023/04/13 01:02:44;;;;;;;1.98;1.00;;;5.00;99.90;;;;;;5082543;28;20044;-85
2023/04/13 01:05:11;;;;;;;3.50;1.10;;;5.00;99.90;;;;;;5094093;28;20114;-86
2023/04/13 01:07:58;;;;;;;1.98;0.90;;;5.10;99.90;;;;;;5093981;28;20083;-84
2023/04/13 01:10:34;;;;;;;2.20;1.15;;;5.10;99.90;;;;;;5083182;28;20047;-84
2023/04/13 01:13:19;;;;;;;1.35;0.90;;;5.20;99.90;;;;;;5083922;28;20479;-84
2023/04/13 01:16:12;;;;;;;2.03;1.10;;;4.50;99.90;;;;;;5094031;28;20047;-84
2023/04/13 01:18:40;;;;;;;1.48;1.00;;;5.40;99.90;;;;;;5086891;28;20126;-85
2023/04/13 01:21:11;;;;;;;3.47;1.40;;;6.00;99.90;;;;;;5093575;28;20388;-85
2023/04/13 01:23:49;;;;;;;4.68;1.73;;;5.30;99.90;;;;;;5084127;28;20043;-85
2023/04/13 01:26:16;;;;;;;2.70;1.65;;;5.40;99.90;;;;;;5086417;28;20067;-86
2023/04/13 01:28:41;;;;;;;4.25;1.65;;;6.30;99.90;;;;;;5087078;28;20028;-84
2023/04/13 01:31:11;;;;;;;3.05;1.50;;;6.80;99.90;;;;;;5091077;28;20059;-84
2023/04/13 01:33:40;;;;;;;4.25;1.60;;;5.50;99.90;;;;;;5090724;28;20111;-84
2023/04/13 01:36:07;;;;;;;3.58;1.80;;;5.50;99.90;;;;;;5094719;28;20079;-85
2023/04/13 01:38:32;;;;;;;5.93;2.10;;;5.50;99.90;;;;;;5087784;28;20044;-85
2023/04/13 01:40:58;;;;;;;4.78;1.52;;;6.60;99.90;;;;;;5092733;28;20051;-84
2023/04/13 01:43:25;;;;;;;2.35;1.65;;;5.90;99.90;;;;;;5087100;28;20548;-85
2023/04/13 01:46:03;;;;;;;2.83;1.40;;;5.40;99.90;;;;;;5085349;28;20122;-85
2023/04/13 01:48:35;;;;;;;3.00;1.50;;;5.40;99.90;;;;;;5087497;28;20080;-87
2023/04/13 01:51:25;;;;;;;3.45;1.35;;;5.60;99.90;;;;;;5092034;28;20083;-85
2023/04/13 01:54:10;;;;;;;1.98;1.40;;;5.50;99.90;;;;;;5090442;28;20465;-85
2023/04/13 01:56:40;;;;;;;2.42;1.10;;;5.40;99.90;;;;;;5094901;28;20072;-85
2023/04/13 01:59:06;;;;;;;2.53;1.10;;;5.40;99.90;;;;;;5092081;28;20090;-89
2023/04/13 02:01:32;;;;;;;2.75;1.50;;;5.30;99.90;;;;;;5089859;28;20036;-86
2023/04/13 02:04:01;;;;;;;2.60;1.20;;;7.10;99.90;;;;;;5094630;28;20550;-87
2023/04/13 02:06:27;;;;;;;2.80;0.80;;;5.40;99.90;;;;;;5095336;28;20116;-87
2023/04/13 02:08:53;;;;;;;1.10;0.70;;;5.50;99.90;;;;;;5085462;28;20087;-83
2023/04/13 02:11:19;;;;;;;2.75;0.80;;;5.50;99.90;;;;;;5085269;28;20052;-86
2023/04/13 02:13:46;;;;;;;1.58;0.70;;;5.60;99.90;;;;;;5093094;28;20063;-88
2023/04/13 02:16:12;;;;;;;2.88;0.88;;;5.40;99.90;;;;;;5085169;28;20048;-90
2023/04/13 02:18:39;;;;;;;2.40;0.80;;;6.40;99.90;;;;;;5095264;28;20043;-88
2023/04/13 02:21:08;;;;;;;2.88;0.85;;;7.00;99.90;;;;;;5085068;28;20055;-88
2023/04/13 02:23:35;;;;;;;1.63;0.60;;;5.50;99.90;;;;;;5086148;28;20097;-88
2023/04/13 02:26:03;;;;;;;0.68;0.60;;;6.70;99.90;;;;;;5092868;28;20085;-90
2023/04/13 02:28:29;;;;;;;1.48;0.88;;;5.60;99.90;;;;;;5087645;28;20044;-91
2023/04/13 02:30:55;;;;;;;1.30;0.55;;;5.50;99.90;;;;;;5095501;28;20094;-89
2023/04/13 02:33:22;;;;;;;2.60;0.60;;;5.60;99.90;;;;;;5090474;28;20035;-88
2023/04/13 02:35:48;;;;;;;0.82;0.57;;;5.70;99.90;;;;;;5099302;28;20111;-85
2023/04/13 02:38:15;;;;;;;1.17;0.60;;;6.80;99.90;;;;;;5086492;28;20052;-88
2023/04/13 02:40:42;;;;;;;1.98;0.70;;;6.20;99.90;;;;;;5089929;28;20060;-87
2023/04/13 02:43:11;;;;;;;1.02;0.50;;;5.50;99.90;;;;;;5085375;28;20228;-86
2023/04/13 02:45:43;;;;;;;0.80;0.60;;;5.80;99.90;;;;;;5087892;28;20084;-85
2023/04/13 02:48:09;;;;;;;1.35;0.70;;;5.60;99.90;;;;;;5087567;28;20123;-88
2023/04/13 02:50:35;;;;;;;0.75;0.50;;;5.40;99.90;;;;;;5088934;28;20048;-86
2023/04/13 02:53:01;;;;;;;2.60;0.63;;;6.30;99.90;;;;;;5090358;28;20100;-87
2023/04/13 02:55:26;;;;;;;0.88;0.50;;;5.60;99.90;;;;;;5085834;28;20044;-85
2023/04/13 02:57:53;;;;;;;3.15;0.57;;;5.50;99.90;;;;;;5085402;28;20533;-87
2023/04/13 03:00:19;;;;;;;1.02;0.50;;;5.50;99.90;;;;;;5083906;28;20056;-88
2023/04/13 03:02:45;;;;;;;1.38;0.60;;;4.70;99.90;;;;;;5089642;28;20051;-88
2023/04/13 03:05:11;;;;;;;2.17;0.60;;;6.40;99.90;;;;;;5092618;28;20540;-87
2023/04/13 03:07:37;;;;;;;1.10;0.65;;;7.00;99.90;;;;;;5087108;28;20044;-89
2023/04/13 03:10:04;;;;;;;0.98;0.52;;;7.00;99.90;;;;;;5083997;28;20040;-86
2023/04/13 03:12:33;;;;;;;1.27;0.50;;;5.60;99.90;;;;;;5085941;28;20036;-86
2023/04/13 03:15:01;;;;;;;0.75;0.40;;;5.60;99.90;;;;;;5084104;28;20072;-87
2023/04/13 03:17:31;;;;;;;1.08;0.40;;;5.60;99.90;;;;;;5092509;28;20622;-88
2023/04/13 03:19:57;;;;;;;0.88;0.40;;;7.10;99.90;;;;;;5092572;28;20503;-85
2023/04/13 03:22:24;;;;;;;0.80;0.38;;;5.60;99.90;;;;;;5085469;28;20032;-89
2023/04/13 03:24:51;;;;;;;0.98;0.57;;;5.40;99.90;;;;;;5093979;28;20039;-87
2023/04/13 03:27:17;;;;;;;0.47;0.40;;;5.60;99.90;;;;;;5086241;28;20083;-86
2023/04/13 03:29:43;;;;;;;1.92;0.63;;;5.60;99.90;;;;;;5094858;28;20092;-89
2023/04/13 03:32:08;;;;;;;0.85;0.40;;;5.60;99.90;;;;;;5086425;28;20056;-89
2023/04/13 03:34:34;;;;;;;0.68;0.50;;;6.50;99.90;;;;;;5091211;28;20040;-87
2023/04/13 03:37:00;;;;;;;1.42;0.50;;;6.70;99.90;;;;;;5080363;28;20048;-88
2023/04/13 03:39:26;;;;;;;2.40;0.60;;;7.00;99.90;;;;;;5085181;28;20040;-85
2023/04/13 03:41:52;;;;;;;1.02;0.30;;;6.20;99.90;;;;;;5085583;28;20048;-86
2023/04/13 03:44:17;;;;;;;1.33;0.50;;;5.70;99.90;;;;;;5084850;28;20041;-88
2023/04/13 03:46:43;;;;;;;0.85;0.60;;;5.60;99.90;;;;;;5090154;28;20049;-88
2023/04/13 03:49:10;;;;;;;1.75;0.40;;;5.60;99.90;;;;;;5078791;28;20048;-88
2023/04/13 03:51:36;;;;;;;2.50;0.50;;;5.70;99.90;;;;;;5082824;28;20060;-88
2023/04/13 03:54:03;;;;;;;1.30;0.40;;;5.70;99.90;;;;;;5086965;28;20185;-87
2023/04/13 03:56:32;;;;;;;0.43;0.40;;;5.70;99.90;;;;;;5084234;28;20051;-87
2023/04/13 03:58:58;;;;;;;0.80;0.55;;;5.70;99.90;;;;;;5085991;28;20036;-86
2023/04/13 04:01:26;;;;;;;2.67;0.60;;;5.90;99.90;;;;;;5090210;28;20040;-85
2023/04/13 04:03:55;;;;;;;0.52;0.30;;;6.80;99.90;;;;;;5088227;28;20116;-85
2023/04/13 04:06:26;;;;;;;1.63;0.50;;;5.70;99.90;;;;;;5082232;28;20389;-85
2023/04/13 04:08:51;;;;;;;1.35;0.40;;;5.70;99.90;;;;;;5084489;28;20059;-85
2023/04/13 04:11:17;;;;;;;0.63;0.50;;;5.50;99.90;;;;;;5090013;28;20036;-86
2023/04/13 04:13:44;;;;;;;1.73;0.40;;;5.80;99.90;;;;;;5091128;28;20040;-87
2023/04/13 04:16:10;;;;;;;0.90;0.50;;;5.80;99.90;;;;;;5084606;28;20051;-89
2023/04/13 04:18:36;;;;;;;1.23;0.43;;;6.50;99.90;;;;;;5082780;28;20111;-87
2023/04/13 04:21:03;;;;;;;0.60;0.40;;;6.00;99.90;;;;;;5083437;28;20052;-86
2023/04/13 04:23:29;;;;;;;0.70;0.35;;;5.80;99.90;;;;;;5089543;28;20036;-85
2023/04/13 04:25:58;;;;;;;0.63;0.60;;;7.00;99.90;;;;;;5084141;28;20105;-85
2023/04/13 04:28:24;;;;;;;1.20;0.50;;;5.80;99.90;;;;;;5083221;28;20045;-86
2023/04/13 04:30:54;;;;;;;1.00;0.60;;;6.10;99.90;;;;;;5084342;28;20074;-84
2023/04/13 04:33:23;;;;;;;1.17;0.55;;;7.40;99.90;;;;;;5080898;28;20128;-84
2023/04/13 04:35:50;;;;;;;0.98;0.47;;;5.80;99.90;;;;;;5085085;28;20048;-84
2023/04/13 04:38:17;;;;;;;1.45;0.50;;;5.90;99.90;;;;;;5088844;28;20496;-87
2023/04/13 04:40:46;;;;;;;2.42;0.70;;;6.10;99.90;;;;;;5091402;28;20085;-83
2023/04/13 04:43:13;;;;;;;0.98;0.55;;;6.40;99.90;;;;;;5081445;28;20097;-84
2023/04/13 04:45:44;;;;;;;0.70;0.50;;;5.60;99.90;;;;;;5084580;28;20128;-84
2023/04/13 04:48:12;;;;;;;1.77;0.55;;;5.60;99.90;;;;;;5089978;28;20044;-84
2023/04/13 04:50:38;;;;;;;1.45;0.50;;;5.60;99.90;;;;;;5087704;28;20089;-83
2023/04/13 04:53:05;;;;;;;2.10;0.57;;;5.60;99.90;;;;;;5095971;28;20068;-83
2023/04/13 04:55:32;;;;;;;0.93;0.50;;;6.30;99.90;;;;;;5087736;28;20381;-84
2023/04/13 04:58:00;;;;;;;4.03;0.90;;;6.70;99.90;;;;;;5086391;28;20040;-83
2023/04/13 05:00:29;;;;;;;2.00;0.60;;;5.40;99.90;;;;;;5094760;28;20028;-83
2023/04/13 05:02:56;;;;;;;0.70;0.60;;;5.40;99.90;;;;;;5094892;28;20149;-83
2023/04/13 05:05:23;;;;;;;2.13;0.68;;;5.40;99.90;;;;;;5090919;28;20518;-84
2023/04/13 05:07:49;;;;;;;2.97;0.80;;;5.50;99.90;;;;;;5073913;28;20051;-83
2023/04/13 05:10:15;;;;;;;2.35;0.60;;;5.40;99.90;;;;;;5089365;28;20036;-83
2023/04/13 05:12:41;;;;;;;2.13;0.98;;;5.30;99.90;;;;;;5086603;28;20040;-84
2023/04/13 05:15:07;;;;;;;0.73;0.63;;;5.40;99.90;;;;;;5093869;28;20059;-83
2023/04/13 05:17:35;;;;;;;2.20;0.70;;;5.20;99.90;;;;;;5095120;28;20085;-83
2023/04/13 05:20:02;;;;;;;1.95;0.73;;;5.40;99.90;;;;;;5092869;28;20051;-84
2023/04/13 05:22:28;;;;;;;1.92;0.70;;;4.30;99.90;;;;;;5090042;28;20048;-84
2023/04/13 05:24:54;;;;;;;2.00;0.80;;;6.60;99.90;;;;;;5093325;28;20113;-84
2023/04/13 05:27:20;;;;;;;1.48;0.85;;;5.60;99.90;;;;;;5089526;28;20136;-84
2023/04/13 05:29:46;;;;;;;1.77;0.80;;;5.60;99.90;;;;;;5091893;28;20421;-84
2023/04/13 05:32:11;;;;;;;1.10;0.70;;;5.50;99.90;;;;;;5076935;28;20175;-84
2023/04/13 05:34:37;;;;;;;1.88;0.95;;;5.60;99.90;;;;;;5095318;28;20041;-84
2023/04/13 05:37:04;;;;;;;2.47;0.80;;;5.50;99.90;;;;;;5086784;28;20123;-84
2023/04/13 05:39:30;;;;;;;1.95;0.77;;;5.50;99.90;;;;;;5088010;28;20051;-83
2023/04/13 05:41:56;;;;;;;3.22;0.80;;;6.50;99.90;;;;;;5085846;28;20048;-83
2023/04/13 05:44:22;;;;;;;1.30;0.80;;;6.00;99.90;;;;;;5083848;28;20037;-83
2023/04/13 05:46:49;;;;;;;4.00;1.10;;;7.00;99.90;;;;;;5090874;28;20060;-83
2023/04/13 05:49:15;;;;;;;2.65;1.30;;;7.30;99.90;;;;;;5086166;28;20067;-83
2023/04/13 05:51:41;;;;;;;1.63;1.15;;;6.20;99.90;;;;;;5094931;28;20075;-83
2023/04/13 05:54:08;;;;;;;2.15;0.95;;;6.30;99.90;;;;;;5093772;28;20074;-84
2023/04/13 05:56:35;;;;;;;2.50;1.27;;;7.00;99.90;;;;;;5087788;28;20525;-84
2023/04/13 05:59:03;;;;;;;1.67;0.93;;;6.50;99.90;;;;;;5085513;28;20442;-82
2023/04/13 06:01:29;;;;;;;1.35;1.00;;;5.90;99.90;;;;;;5092763;28;20048;-82
2023/04/13 06:03:55;;;;;;;1.55;0.88;;;6.00;99.90;;;;;;5091035;28;20055;-82
2023/04/13 06:06:21;;;;;;;1.80;0.80;;;6.10;99.90;;;;;;5088313;28;20032;-82
2023/04/13 06:08:48;;;;;;;2.92;1.10;;;7.70;99.90;;;;;;5082491;28;20409;-83
2023/04/13 06:11:14;;;;;;;2.40;1.02;;;6.20;99.90;;;;;;5090281;28;20052;-83
2023/04/13 06:13:40;;;;;;;2.13;1.00;;;6.30;99.90;;;;;;5093795;28;20076;-83
2023/04/13 06:16:10;;;;;;;1.75;0.98;;;6.90;99.90;;;;;;5088014;28;20067;-81
2023/04/13 06:18:36;;;;;;;2.35;1.17;;;6.60;99.90;;;;;;5086012;28;20048;-81
2023/04/13 06:21:02;;;;;;;2.85;1.23;;;6.70;99.90;;;;;;5092222;28;20381;-82
2023/04/13 06:23:28;;;;;;;7.10;1.52;;;6.70;99.90;;;;;;5091321;28;20036;-83
2023/04/13 06:25:55;;;;;;;2.20;1.02;;;6.80;99.90;;;;;;5081278;28;20044;-81
2023/04/13 06:28:21;;;;;;;2.83;1.10;;;6.90;99.90;;;;;;5092018;28;20551;-82
2023/04/13 06:30:47;;;;;;;4.68;0.90;;;8.40;99.90;;;;;;5091299;28;20044;-82
2023/04/13 06:33:14;;;;;;;2.47;1.00;;;6.90;99.90;;;;;;5083068;28;20059;-82
2023/04/13 06:35:40;;;;;;;3.75;0.63;;;8.10;99.90;;;;;;5086374;28;20037;-82
2023/04/13 06:38:06;;;;;;;1.63;0.77;;;6.80;99.90;;;;;;5082315;28;20137;-82
2023/04/13 06:40:32;;;;;;;2.15;0.80;;;6.80;99.90;;;;;;5089451;28;20452;-82
2023/04/13 06:42:58;;;;;;;4.53;1.00;;;6.90;99.90;;;;;;5082497;28;20531;-83
2023/04/13 06:45:24;;;;;;;5.72;0.82;;;6.70;99.90;;;;;;5083910;28;20056;-83
2023/04/13 06:47:51;;;;;;;2.75;0.70;;;7.40;99.90;;;;;;5087648;28;20453;-82
2023/04/13 06:50:17;;;;;;;3.10;0.90;;;6.90;99.90;;;;;;5080793;28;20054;-85
2023/04/13 06:52:47;;;;;;;2.40;0.90;;;6.90;99.90;;;;;;5090902;28;20036;-82
2023/04/13 06:55:13;;;;;;;1.75;0.90;;;7.00;99.90;;;;;;5093291;28;20036;-83
2023/04/13 06:57:39;;;;;;;2.90;1.05;;;7.00;99.90;;;;;;5091154;28;20412;-83
2023/04/13 07:00:07;;;;;;;3.10;0.75;;;7.00;99.90;;;;;;5090866;28;20048;-82
2023/04/13 07:02:35;;;;;;;1.05;0.50;;;7.00;99.90;;;;;;5081091;28;20094;-83
2023/04/13 07:05:01;;;;;;;4.28;0.85;;;8.40;99.90;;;;;;5081290;28;20143;-82
2023/04/13 07:07:27;;;;;;;3.10;0.80;;;7.10;99.90;;;;;;5083044;28;20043;-83
2023/04/13 07:09:53;;;;;;;2.50;0.98;;;7.90;99.90;;;;;;5085987;28;20044;-84
2023/04/13 07:12:19;;;;;;;2.80;0.98;;;7.40;99.90;;;;;;5087284;28;20051;-83
2023/04/13 07:14:48;;;;;;;2.17;0.70;;;8.30;99.90;;;;;;5088871;28;20036;-83
2023/04/13 07:17:15;;;;;;;2.20;0.82;;;7.20;99.90;;;;;;5083133;28;20041;-82
2023/04/13 07:19:46;;;;;;;3.33;1.55;;;7.20;99.90;;;;;;5084917;28;20036;-83
2023/04/13 07:22:13;;;;;;;3.45;1.38;;;6.70;99.90;;;;;;5084926;28;20044;-83
2023/04/13 07:24:39;;;;;;;5.93;1.50;;;8.20;99.90;;;;;;5087967;28;20124;-82
2023/04/13 07:27:05;;;;;;;2.88;1.10;;;7.60;99.90;;;;;;5089592;28;20071;-82
2023/04/13 07:29:31;;;;;;;3.90;1.40;;;7.70;99.90;;;;;;5092928;28;20055;-83
2023/04/13 07:32:05;;;;;;;2.55;1.13;;;7.90;99.90;;;;;;5092931;28;20400;-83
2023/04/13 07:34:31;;;;;;;6.18;1.65;;;8.00;99.90;;;;;;5092584;28;20056;-83
2023/04/13 07:36:56;;;;;;;5.95;1.65;;;8.00;99.90;;;;;;5094063;28;20109;-84
2023/04/13 07:39:22;;;;;;;3.58;1.30;;;8.60;99.90;;;;;;5092582;28;20226;-83
2023/04/13 07:41:48;;;;;;;2.92;1.00;;;8.30;99.90;;;;;;5093660;28;20058;-83
2023/04/13 07:44:14;;;;;;;3.97;1.27;;;8.20;99.90;;;;;;5093691;28;20044;-83
2023/04/13 07:46:40;;;;;;;3.40;1.20;;;9.40;99.90;;;;;;5093570;28;20048;-84
2023/04/13 07:49:06;;;;;;;4.25;1.40;;;8.30;99.90;;;;;;5093582;28;20055;-83
2023/04/13 07:51:33;;;;;;;6.25;1.25;;;9.50;99.90;;;;;;5093653;28;20082;-83
2023/04/13 07:54:00;;;;;;;4.07;1.30;;;8.50;99.90;;;;;;5092563;28;20074;-83
2023/04/13 07:56:26;;;;;;;7.03;1.70;;;8.60;99.90;;;;;;5093511;28;20063;-82
2023/04/13 07:58:52;;;;;;;3.75;1.13;;;8.80;99.90;;;;;;5093554;28;20036;-85
2023/04/13 08:01:18;;;;;;;4.38;1.75;;;9.20;99.90;;;;;;5093494;28;20516;-83
2023/04/13 08:03:44;;;;;;;6.13;2.50;;;8.90;99.90;;;;;;5092313;28;20076;-83
2023/04/13 08:06:10;;;;;;;4.65;1.40;;;9.30;99.90;;;;;;5093449;28;20502;-83
2023/04/13 08:08:36;;;;;;;3.45;1.10;;;9.30;99.90;;;;;;5075146;28;20040;-83
2023/04/13 08:11:02;;;;;;;5.82;1.00;;;9.50;99.90;;;;;;5112624;28;20423;-83
2023/04/13 08:13:28;;;;;;;2.70;1.38;;;9.50;99.90;;;;;;5079304;28;20051;-83
2023/04/13 08:15:56;;;;;;;2.75;0.80;;;9.80;99.90;;;;;;5096131;28;20044;-84
2023/04/13 08:18:22;;;;;;;8.13;1.33;;;9.80;99.90;;;;;;5097409;28;20040;-84
2023/04/13 08:20:49;;;;;;;1.65;0.88;;;9.80;99.90;;;;;;5097219;28;20040;-83
2023/04/13 08:23:15;;;;;;;5.15;0.90;;;10.10;99.90;;;;;;5097532;28;20107;-83
2023/04/13 08:25:40;;;;;;;584.20;333.13;;;10.00;99.90;;;;;;5097274;28;20039;-84
2023/04/13 08:28:07;;;;;;;4.00;0.80;;;10.10;99.90;;;;;;5095923;28;20067;-82
2023/04/13 08:30:33;;;;;;;4.35;1.00;;;10.10;99.90;;;;;;5096238;28;20078;-83
2023/04/13 08:37:15;;;;;;;2.63;0.60;;;10.30;99.90;;;;;;5097483;28;20043;-83
2023/04/13 08:39:41;;;;;;;3.78;0.60;;;10.40;99.90;;;;;;5097428;28;20055;-84
2023/04/13 08:42:06;;;;;;;1.80;0.60;;;10.40;99.90;;;;;;5096403;28;20056;-85
2023/04/13 08:44:32;;;;;;;1.30;0.40;;;10.40;99.90;;;;;;5097335;28;20105;-85
2023/04/13 08:46:59;;;;;;;2.25;0.50;;;10.50;99.90;;;;;;5096189;28;20052;-85
2023/04/13 08:49:28;;;;;;;2.28;0.52;;;10.60;99.90;;;;;;5097817;28;20552;-86
2023/04/13 08:51:58;;;;;;;3.95;0.63;;;10.80;99.90;;;;;;5097710;28;20047;-83
2023/04/13 08:54:27;;;;;;;2.95;0.65;;;11.60;99.90;;;;;;5096339;28;20051;-85
2023/04/13 08:56:53;;;;;;;2.88;0.63;;;11.00;99.90;;;;;;5097183;28;20051;-84
2023/04/13 08:59:21;;;;;;;3.25;0.57;;;11.20;99.90;;;;;;5096962;28;20442;-83
2023/04/13 09:01:48;;;;;;;4.53;0.57;;;11.40;99.90;;;;;;5112536;28;20551;-83
2023/04/13 09:04:17;;;;;;;1.30;0.47;;;11.50;99.90;;;;;;5096537;28;20052;-84
2023/04/13 09:06:44;;;;;;;2.25;0.50;;;11.40;99.90;;;;;;5096759;28;20032;-84
2023/04/13 09:09:13;;;;;;;2.45;0.43;;;11.30;99.90;;;;;;5096510;28;20052;-83
2023/04/13 09:11:41;;;;;;;1.85;0.63;;;10.90;99.90;;;;;;5095177;28;20048;-84
2023/04/13 09:14:09;;;;;;;1.67;0.60;;;10.80;99.90;;;;;;5096271;28;20048;-83
2023/04/13 09:16:42;;;;;;;1.05;0.30;;;10.50;99.90;;;;;;5096360;28;20503;-84
2023/04/13 09:19:08;;;;;;;0.90;0.40;;;10.80;99.90;;;;;;5096501;28;20109;-83
2023/04/13 09:21:39;;;;;;;881.33;413.23;;;10.40;99.90;;;;;;5095648;28;20082;-82
2023/04/13 09:24:06;;;;;;;1.60;0.30;;;10.30;99.90;;;;;;5094895;28;20048;-83
2023/04/13 09:26:43;;;;;;;4.25;0.47;;;10.20;99.90;;;;;;5096103;28;20165;-84
2023/04/13 09:29:12;;;;;;;0.65;0.30;;;10.10;99.90;;;;;;5095438;28;20055;-83
2023/04/13 09:31:38;;;;;;;2.03;0.30;;;10.20;99.90;;;;;;5112050;28;20464;-83
2023/04/13 09:34:07;;;;;;;0.75;0.30;;;10.20;99.90;;;;;;5094616;28;20553;-82
2023/04/13 09:36:33;;;;;;;1.65;0.30;;;10.30;99.90;;;;;;5094738;28;20054;-83
2023/04/13 09:38:59;;;;;;;0.38;0.20;;;10.30;99.90;;;;;;5095982;28;20140;-83
2023/04/13 09:41:39;;;;;;;2.17;0.30;;;10.20;99.90;;;;;;5095724;28;20095;-83
2023/04/13 09:44:19;;;;;;;327.58;169.52;;;10.30;99.90;;;;;;5095593;28;20044;-83
2023/04/13 09:47:03;;;;;;;0.75;0.20;;;9.90;99.90;;;;;;5095682;28;20075;-83
2023/04/13 09:49:40;;;;;;;1.50;0.20;;;9.80;99.90;;;;;;5095666;28;20040;-83
2023/04/13 09:52:17;;;;;;;1.65;0.22;;;9.50;99.90;;;;;;5095295;28;20044;-83
2023/04/13 09:54:43;;;;;;;3.03;0.55;;;9.40;99.90;;;;;;5095549;28;20044;-83
2023/04/13 09:57:11;;;;;;;0.45;0.20;;;9.30;99.90;;;;;;5094206;28;20044;-85
2023/04/13 09:59:37;;;;;;;1.77;0.20;;;9.30;99.90;;;;;;5093978;28;20044;-84
2023/04/13 10:02:04;;;;;;;0.10;0.10;;;9.10;99.90;;;;;;5095275;28;20044;-83
2023/04/13 10:04:30;;;;;;;0.22;0.10;;;9.00;99.90;;;;;;5095204;28;20089;-84
2023/04/13 10:06:56;;;;;;;0.10;0.10;;;9.10;99.90;;;;;;5095390;28;20036;-81
2023/04/13 10:09:24;;;;;;;0.20;0.10;;;8.90;99.90;;;;;;5110668;28;20542;-82
2023/04/13 10:11:50;;;;;;;0.28;0.10;;;8.80;99.90;;;;;;5076643;28;20119;-82
2023/04/13 10:14:23;;;;;;;0.10;0.10;;;8.90;99.90;;;;;;5094721;28;20078;-82
2023/04/13 10:17:38;;;;;;;0.10;0.10;;;9.00;99.90;;;;;;5094422;28;20036;-83
2023/04/13 10:20:11;;;;;;;0.05;0.00;;;9.00;99.90;;;;;;5037542;28;20088;-82
2023/04/13 10:22:40;;;;;;;0.17;0.10;;;9.00;99.90;;;;;;5029596;28;20061;-82
2023/04/13 10:25:06;;;;;;;0.70;0.10;;;9.00;99.90;;;;;;5034070;28;20063;-81
2023/04/13 10:27:34;;;;;;;3.03;1.00;;;9.10;99.90;;;;;;5039533;28;20587;-81
2023/04/13 10:30:10;;;;;;;0.82;0.20;;;9.10;99.90;;;;;;5015621;28;20143;-81
2023/04/13 10:32:36;;;;;;;0.08;0.08;;;9.20;99.90;;;;;;5030584;28;20068;-80
2023/04/13 10:35:10;;;;;;;1.65;0.20;;;9.30;99.90;;;;;;5014252;28;20524;-81
2023/04/13 10:37:38;;;;;;;0.50;0.10;;;9.40;99.90;;;;;;5032010;28;20099;-82
2023/04/13 10:40:07;;;;;;;0.15;0.10;;;9.70;99.90;;;;;;5031537;28;20068;-81
2023/04/13 10:42:46;;;;;;;0.82;0.30;;;11.00;99.90;;;;;;5031377;28;20088;-83
2023/04/13 10:45:26;;;;;;;31.27;11.70;;;10.10;99.90;;;;;;5031527;28;20052;-81
2023/04/13 10:47:57;;;;;;;0.30;0.20;;;10.10;99.90;;;;;;5031591;28;20076;-81
2023/04/13 10:50:26;;;;;;;0.68;0.20;;;10.40;99.90;;;;;;5031331;28;20050;-81
2023/04/13 10:53:09;;;;;;;0.60;0.30;;;10.60;99.90;;;;;;5036614;28;20498;-81
2023/04/13 10:55:38;;;;;;;1.00;0.20;;;10.80;99.90;;;;;;5078753;28;20040;-82
2023/04/13 10:58:16;;;;;;;0.47;0.35;;;11.00;99.90;;;;;;5092728;28;20381;-81
2023/04/13 11:00:43;;;;;;;0.90;0.30;;;11.20;99.90;;;;;;5088091;28;20477;-80
2023/04/13 11:03:09;;;;;;;1.75;0.28;;;11.30;99.90;;;;;;5089238;28;20040;-81
2023/04/13 11:05:35;;;;;;;1.65;0.40;;;11.20;99.90;;;;;;5086508;28;20042;-82
2023/04/13 11:08:03;;;;;;;3.13;1.00;;;12.10;99.90;;;;;;5080409;28;20036;-82
2023/04/13 11:10:30;;;;;;;4.05;0.40;;;11.00;99.90;;;;;;5082623;28;20047;-81
2023/04/13 11:12:57;;;;;;;4.03;0.40;;;11.10;99.90;;;;;;5092660;28;20032;-84
2023/04/13 11:15:32;;;;;;;1.58;0.32;;;10.60;99.90;;;;;;5092812;28;20040;-82
2023/04/13 11:17:59;;;;;;;0.20;0.20;;;10.60;99.90;;;;;;5076737;28;20052;-82
2023/04/13 11:20:36;;;;;;;0.30;0.15;;;10.20;99.90;;;;;;5091063;28;20086;-80
2023/04/13 11:23:14;;;;;;;1.58;0.20;;;10.20;99.90;;;;;;5081753;28;20166;-81
2023/04/13 11:25:53;;;;;;;0.43;0.20;;;10.00;99.90;;;;;;5089064;28;20075;-82
2023/04/13 11:28:22;;;;;;;0.50;0.15;;;10.00;99.90;;;;;;5073613;28;20036;-86
2023/04/13 11:30:54;;;;;;;0.10;0.10;;;10.10;99.90;;;;;;5089953;28;20040;-81
2023/04/13 11:33:28;;;;;;;0.63;0.20;;;10.70;99.90;;;;;;5081019;28;20092;-83
2023/04/13 11:35:55;;;;;;;0.50;0.20;;;10.60;99.90;;;;;;5091045;28;20036;-82
2023/04/13 11:38:22;;;;;;;891.63;551.63;;;11.00;99.90;;;;;;5089087;28;20033;-81
2023/04/13 11:40:49;;;;;;;394.37;209.90;;;11.20;99.90;;;;;;5070758;28;20139;-83
2023/04/13 11:43:16;;;;;;;5.13;0.47;;;11.30;99.90;;;;;;5092048;28;20083;-83
2023/04/13 11:45:42;;;;;;;5.60;0.85;;;11.30;99.90;;;;;;5092265;28;20047;-82
2023/04/13 11:48:08;;;;;;;3.22;0.60;;;11.30;99.90;;;;;;5086088;28;20075;-83
2023/04/13 11:50:37;;;;;;;7.20;0.68;;;11.20;99.90;;;;;;5081670;28;20044;-82
2023/04/13 11:53:03;;;;;;;3.95;0.60;;;11.20;99.90;;;;;;5089454;28;20040;-82
2023/04/13 11:55:31;;;;;;;2.33;0.95;;;11.00;99.90;;;;;;5090512;28;20479;-82
2023/04/13 11:57:57;;;;;;;0.60;0.30;;;11.00;99.90;;;;;;5085475;28;20043;-83
2023/04/13 12:00:25;;;;;;;1.20;0.20;;;10.70;99.90;;;;;;5100988;28;20063;-83
2023/04/13 12:02:52;;;;;;;1.73;0.30;;;10.40;99.90;;;;;;5084645;28;20076;-83
2023/04/13 12:05:28;;;;;;;1.85;0.25;;;10.90;99.90;;;;;;5083687;28;20123;-82
2023/04/13 12:07:55;;;;;;;;;;;10.10;99.90;;;;;;5082964;28;20044;-86
2023/04/13 12:10:33;;;;;;;3.20;0.50;;;10.00;99.90;;;;;;5089595;28;19920;-83
2023/04/13 12:13:12;;;;;;;0.22;0.20;;;9.90;99.90;;;;;;5102941;28;20106;-90
2023/04/13 12:15:47;;;;;;;3.03;0.30;;;9.90;99.90;;;;;;5082616;28;20077;-87
2023/04/13 12:18:21;;;;;;;4.90;0.50;;;9.90;99.90;;;;;;5084090;28;20047;-89
2023/04/13 12:20:48;;;;;;;118.78;76.88;;;10.00;99.90;;;;;;5086143;28;20507;-85
2023/04/13 12:23:26;;;;;;;4.35;0.60;;;10.00;99.90;;;;;;5092608;28;20480;-86
2023/04/13 12:25:59;;;;;;;5.97;0.50;;;10.00;99.90;;;;;;5083348;28;20044;-83
2023/04/13 12:28:37;;;;;;;5.07;0.65;;;10.10;99.90;;;;;;5092106;28;20047;-84
2023/04/13 12:31:11;;;;;;;313.73;181.63;;;10.10;99.90;;;;;;5098998;28;20494;-83
2023/04/13 12:33:38;;;;;;;3.95;0.70;;;10.10;99.90;;;;;;5083908;28;20040;-86
2023/04/13 12:36:10;;;;;;;5.32;1.10;;;10.00;99.90;;;;;;5078213;28;20051;-82
2023/04/13 12:38:37;;;;;;;4.00;0.88;;;10.10;99.90;;;;;;5091325;28;20043;-86
2023/04/13 12:41:07;;;;;;;3.20;0.65;;;10.10;99.90;;;;;;5083800;28;20499;-83
2023/04/13 12:43:33;;;;;;;1.52;0.50;;;10.20;99.90;;;;;;5077474;28;20036;-86
2023/04/13 12:45:58;;;;;;;13.15;4.80;;;10.30;99.90;;;;;;5063464;28;20055;-86
2023/04/13 12:48:24;;;;;;;10.00;0.80;;;10.40;99.90;;;;;;5087768;28;20052;-87
2023/04/13 12:51:03;;;;;;;6.50;0.40;;;10.50;99.90;;;;;;5086897;28;20052;-89
2023/04/13 12:53:29;;;;;;;9.18;2.28;;;10.60;99.90;;;;;;5085307;28;20040;-86
2023/04/13 12:55:55;;;;;;;9.68;1.25;;;10.50;99.90;;;;;;5090942;28;20044;-89
2023/04/13 12:58:21;;;;;;;2.33;0.60;;;10.30;99.90;;;;;;5086181;28;20050;-83
2023/04/13 13:00:46;;;;;;;4.70;0.80;;;10.30;99.90;;;;;;5089500;28;20083;-83
2023/04/13 13:03:12;;;;;;;2.50;0.57;;;10.20;99.90;;;;;;5092367;28;20551;-82
2023/04/13 13:05:38;;;;;;;3.85;0.60;;;10.00;99.90;;;;;;5088660;28;20048;-83